Latest Weather Observations for Colpoys Point

IDW60801

Issued at 9:33 am WST Tuesday 22 September 2020 (issued every 10 minutes, with the page automatically refreshed every 10 minutes)

About weather observations | Map of weather stations | Latest weather observations for WA | Other Formats
Station Details ID: 009255 Name: COLPOYS POINT Lat: -32.23 Lon: 115.70 Height: 3.0 m
Data from the previous 72 hours. | See also: Recent months for locations in Western Australia
Date/Time
WST
Temp
°C
App
Temp
°C
Dew
Point
°C
Rel
Hum
%
Delta-T
°C
Wind Press
QNH
hPa
Press
MSL
hPa
Rain since
9am
mm
Dir  Spd
km/h
Gust
km/h
Spd
kts
Gust
kts
22/09:30am - - - - - SE 7 9 4 5 - - -
22/09:00am - - - - - SE 9 15 5 8 - - -
22/08:30am - - - - - SE 9 9 5 5 - - -
22/08:00am - - - - - SE 9 11 5 6 - - -
22/07:30am - - - - - SE 15 17 8 9 - - -
22/07:00am - - - - - WSW 11 13 6 7 - - -
22/06:30am - - - - - WNW 9 13 5 7 - - -
22/06:00am - - - - - WNW 13 19 7 10 - - -
22/05:30am - - - - - WNW 19 30 10 16 - - -
22/05:00am - - - - - WSW 17 26 9 14 - - -
22/04:30am - - - - - WSW 22 35 12 19 - - -
22/04:00am - - - - - WSW 22 33 12 18 - - -
22/03:30am - - - - - WSW 19 30 10 16 - - -
22/03:00am - - - - - WSW 15 20 8 11 - - -
22/02:30am - - - - - W 15 22 8 12 - - -
22/02:00am - - - - - WSW 20 30 11 16 - - -
22/01:30am - - - - - W 15 22 8 12 - - -
22/01:00am - - - - - W 15 22 8 12 - - -
22/12:30am - - - - - WNW 9 13 5 7 - - -
22/12:00am - - - - - W 13 19 7 10 - - -
 
Date/Time
WST
Temp
°C
App
Temp
°C
Dew
Point
°C
Rel
Hum
%
Delta-T
°C
Wind Press
QNH
hPa
Press
MSL
hPa
Rain since
9am
mm
Dir  Spd
km/h
Gust
km/h
Spd
kts
Gust
kts
21/11:30pm - - - - - W 19 28 10 15 - - -
21/11:00pm - - - - - W 17 24 9 13 - - -
21/10:30pm - - - - - W 17 26 9 14 - - -
21/10:00pm - - - - - W 15 22 8 12 - - -
21/09:30pm - - - - - WSW 17 24 9 13 - - -
21/09:00pm - - - - - WSW 15 26 8 14 - - -
21/08:30pm - - - - - NW 9 11 5 6 - - -
21/08:00pm - - - - - WNW 11 17 6 9 - - -
21/07:30pm - - - - - WSW 15 30 8 16 - - -
21/07:00pm - - - - - WSW 17 24 9 13 - - -
21/06:30pm - - - - - SW 13 15 7 8 - - -
21/06:00pm - - - - - SW 17 28 9 15 - - -
21/05:30pm - - - - - WSW 7 9 4 5 - - -
21/05:00pm - - - - - SW 11 17 6 9 - - -
21/04:30pm - - - - - SSW 11 15 6 8 - - -
21/04:00pm - - - - - SSW 13 15 7 8 - - -
21/03:30pm - - - - - SW 30 37 16 20 - - -
21/03:08pm - - - - - SW 24 43 13 23 - - -
21/03:00pm - - - - - SW 17 24 9 13 - - -
21/02:30pm - - - - - SW 20 28 11 15 - - -
21/02:00pm - - - - - SW 17 24 9 13 - - -
21/01:30pm - - - - - SSW 17 24 9 13 - - -
21/01:00pm - - - - - SSW 20 28 11 15 - - -
21/12:30pm - - - - - SSW 22 30 12 16 - - -
21/12:00pm - - - - - SW 24 30 13 16 - - -
21/11:30am - - - - - SSW 13 19 7 10 - - -
21/11:00am - - - - - S 17 20 9 11 - - -
21/10:30am - - - - - S 19 26 10 14 - - -
21/10:00am - - - - - S 22 26 12 14 - - -
21/09:30am - - - - - SSW 28 37 15 20 - - -
21/09:00am - - - - - SSW 28 37 15 20 - - -
21/08:30am - - - - - SSW 28 35 15 19 - - -
21/08:00am - - - - - SSW 33 41 18 22 - - -
21/07:30am - - - - - SSW 35 43 19 23 - - -
21/07:26am - - - - - SSW 30 43 16 23 - - -
21/07:00am - - - - - SE 19 24 10 13 - - -
21/06:30am - - - - - SSW 33 46 18 25 - - -
21/06:00am - - - - - SSW 30 35 16 19 - - -
21/05:30am - - - - - SSW 33 39 18 21 - - -
21/05:00am - - - - - SSW 32 39 17 21 - - -
21/04:30am - - - - - SSW 32 39 17 21 - - -
21/04:00am - - - - - SW 39 48 21 26 - - -
21/03:30am - - - - - SW 32 39 17 21 - - -
21/03:00am - - - - - SW 33 43 18 23 - - -
21/02:30am - - - - - SW 32 37 17 20 - - -
21/02:00am - - - - - SW 33 41 18 22 - - -
21/01:30am - - - - - SW 33 41 18 22 - - -
21/01:00am - - - - - SW 32 41 17 22 - - -
21/12:30am - - - - - SSW 37 46 20 25 - - -
21/12:00am - - - - - SW 39 50 21 27 - - -
 
Date/Time
WST
Temp
°C
App
Temp
°C
Dew
Point
°C
Rel
Hum
%
Delta-T
°C
Wind Press
QNH
hPa
Press
MSL
hPa
Rain since
9am
mm
Dir  Spd
km/h
Gust
km/h
Spd
kts
Gust
kts
20/11:30pm - - - - - SW 35 41 19 22 - - -
20/11:00pm - - - - - SW 39 54 21 29 - - -
20/10:30pm - - - - - SW 37 44 20 24 - - -
20/10:00pm - - - - - SW 39 48 21 26 - - -
20/09:30pm - - - - - SW 37 48 20 26 - - -
20/09:00pm - - - - - SW 43 54 23 29 - - -
20/08:30pm - - - - - SSW 41 50 22 27 - - -
20/08:00pm - - - - - SSW 44 59 24 32 - - -
20/07:30pm - - - - - SW 44 56 24 30 - - -
20/07:00pm - - - - - SW 44 54 24 29 - - -
20/06:30pm - - - - - SW 44 54 24 29 - - -
20/06:00pm - - - - - SW 39 52 21 28 - - -
20/05:33pm - - - - - SW 39 57 21 31 - - -
20/05:30pm - - - - - SW 39 52 21 28 - - -
20/05:09pm - - - - - SW 43 61 23 33 - - -
20/05:00pm - - - - - SW 43 57 23 31 - - -
20/04:30pm - - - - - SW 46 59 25 32 - - -
20/04:00pm - - - - - SW 41 54 22 29 - - -
20/03:45pm - - - - - SW 33 52 18 28 - - -
20/03:30pm - - - - - SW 41 54 22 29 - - -
20/03:13pm - - - - - WSW 43 56 23 30 - - -
20/03:00pm - - - - - SW 44 57 24 31 - - -
20/02:35pm - - - - - SW 41 61 22 33 - - -
20/02:30pm - - - - - SW 41 52 22 28 - - -
20/02:03pm - - - - - SW 44 63 24 34 - - -
20/02:00pm - - - - - SW 46 63 25 34 - - -
20/01:30pm - - - - - SW 37 59 20 32 - - -
20/01:04pm - - - - - SW 44 65 24 35 - - -
20/01:00pm - - - - - SW 44 54 24 29 - - -
20/12:31pm - - - - - SW 48 67 26 36 - - -
20/12:30pm - - - - - SW 50 67 27 36 - - -
20/12:14pm - - - - - SW 43 69 23 37 - - -
20/12:00pm - - - - - SW 43 52 23 28 - - -
20/11:30am - - - - - WSW 43 57 23 31 - - -
20/11:16am - - - - - WSW 39 57 21 31 - - -
20/11:00am - - - - - SW 43 59 23 32 - - -
20/10:30am - - - - - SW 48 67 26 36 - - -
20/10:18am - - - - - WSW 41 65 22 35 - - -
20/10:00am - - - - - SW 43 54 23 29 - - -
20/09:33am - - - - - SW 46 74 25 40 - - -
20/09:30am - - - - - SW 44 59 24 32 - - -
20/09:00am - - - - - SW 48 74 26 40 - - -
20/08:42am - - - - - WSW 44 63 24 34 - - -
20/08:30am - - - - - SW 48 61 26 33 - - -
20/08:00am - - - - - WSW 39 61 21 33 - - -
20/07:43am - - - - - WSW 43 61 23 33 - - -
20/07:30am - - - - - SW 46 61 25 33 - - -
20/07:19am - - - - - SW 43 61 23 33 - - -
20/07:04am - - - - - WSW 35 54 19 29 - - -
20/07:00am - - - - - W 32 50 17 27 - - -
20/06:30am - - - - - WSW 43 65 23 35 - - -
20/06:23am - - - - - WSW 43 61 23 33 - - -
20/06:00am - - - - - SW 46 61 25 33 - - -
20/05:51am - - - - - SW 48 72 26 39 - - -
20/05:47am - - - - - WSW 44 72 24 39 - - -
20/05:30am - - - - - WSW 32 61 17 33 - - -
20/05:21am - - - - - WSW 37 56 20 30 - - -
20/05:00am - - - - - WSW 44 61 24 33 - - -
20/04:41am - - - - - WSW 35 54 19 29 - - -
20/04:30am - - - - - WSW 43 57 23 31 - - -
20/04:00am - - - - - WSW 44 70 24 38 - - -
20/03:45am - - - - - WSW 44 70 24 38 - - -
20/03:30am - - - - - WSW 52 67 28 36 - - -
20/03:03am - - - - - SW 46 69 25 37 - - -
20/03:00am - - - - - SW 44 61 24 33 - - -
20/02:30am - - - - - WSW 50 72 27 39 - - -
20/02:04am - - - - - WSW 44 76 24 41 - - -
20/02:00am - - - - - WSW 43 59 23 32 - - -
20/01:30am - - - - - WSW 44 67 24 36 - - -
20/01:00am - - - - - WSW 46 65 25 35 - - -
20/12:35am - - - - - WSW 44 63 24 34 - - -
20/12:30am - - - - - WSW 46 63 25 34 - - -
20/12:00am - - - - - WSW 50 72 27 39 - - -
 
Date/Time
WST
Temp
°C
App
Temp
°C
Dew
Point
°C
Rel
Hum
%
Delta-T
°C
Wind Press
QNH
hPa
Press
MSL
hPa
Rain since
9am
mm
Dir  Spd
km/h
Gust
km/h
Spd
kts
Gust
kts
19/11:30pm - - - - - WSW 46 70 25 38 - - -
19/11:15pm - - - - - WSW 61 78 33 42 - - -
19/11:05pm - - - - - SW 54 93 29 50 - - -
19/11:04pm - - - - - SW 52 93 28 50 - - -
19/11:02pm - - - - - SW 46 93 25 50 - - -
19/11:00pm - - - - - SW 43 61 23 33 - - -
19/10:30pm - - - - - SW 44 65 24 35 - - -
19/10:10pm - - - - - WSW 43 61 23 33 - - -
19/10:00pm - - - - - WSW 48 61 26 33 - - -
19/09:37pm - - - - - SW 44 63 24 34 - - -
19/09:30pm - - - - - SW 46 57 25 31 - - -
19/09:06pm - - - - - WSW 43 61 23 33 - - -
19/09:00pm - - - - - WSW 46 61 25 33 - - -
19/08:33pm - - - - - WSW 48 70 26 38 - - -
19/08:30pm - - - - - WSW 44 63 24 34 - - -
19/08:00pm - - - - - WSW 52 70 28 38 - - -
19/07:57pm - - - - - SW 56 74 30 40 - - -
19/07:46pm - - - - - WSW 46 69 25 37 - - -
19/07:30pm - - - - - WSW 37 61 20 33 - - -
19/07:03pm - - - - - W 33 56 18 30 - - -
19/07:00pm - - - - - W 33 48 18 26 - - -
19/06:31pm - - - - - W 39 82 21 44 - - -
19/06:30pm - - - - - W 37 57 20 31 - - -
19/06:00pm - - - - - W 37 72 20 39 - - -
19/05:30pm - - - - - W 43 67 23 36 - - -
19/05:02pm - - - - - W 35 59 19 32 - - -
19/05:00pm - - - - - W 35 50 19 27 - - -
19/04:30pm - - - - - W 39 61 21 33 - - -
19/04:00pm - - - - - W 39 63 21 34 - - -
19/03:48pm - - - - - W 41 65 22 35 - - -
19/03:43pm - - - - - W 39 59 21 32 - - -
19/03:33pm - - - - - WNW 32 52 17 28 - - -
19/03:30pm - - - - - WNW 32 48 17 26 - - -
19/03:00pm - - - - - W 37 65 20 35 - - -
19/02:30pm - - - - - W 39 59 21 32 - - -
19/02:00pm - - - - - W 37 59 20 32 - - -
19/01:30pm - - - - - W 32 50 17 27 - - -
19/01:00pm - - - - - W 35 61 19 33 - - -
19/12:43pm - - - - - W 32 50 17 27 - - -
19/12:30pm - - - - - W 32 48 17 26 - - -
19/12:00pm - - - - - W 28 50 15 27 - - -
19/11:41am - - - - - WSW 28 50 15 27 - - -
19/11:30am - - - - - W 28 39 15 21 - - -
19/11:11am - - - - - W 28 52 15 28 - - -
19/11:00am - - - - - W 22 35 12 19 - - -
19/10:30am - - - - - WSW 32 39 17 21 - - -
19/10:00am - - - - - WSW 32 43 17 23 - - -

Other formats

Comma delimited format used in spreadsheet applications
http://www.bom.gov.au/fwo/IDW60801/IDW60801.99255.axf

JavaScript Object Notation format (JSON) in row-major order
http://www.bom.gov.au/fwo/IDW60801/IDW60801.99255.json

Data quality

Most of these data are generated automatically and are frequently updated. Quality checks on data are not normally performed. It is possible for incorrect values to appear. Refer to information at About Latest Weather Observations and please check the disclaimer before using these data.